KAVX

Catalina Airport

Avalon, California, USA
METAR KAVX 181328Z AUTO 26006KT 3/4SM BR OVC003 11/11 A3022 RMK AO2 VIS 1/4V4 T01060106
Observed Flight Rules
Jan-18 @ 13:28 UTC (19 minutes ago) Instrument Flight Rules
Wind Visibility Clouds Conditions
260° at 6 knots 3/4 miles
  • Overcast at 300' AGL
  • Mist
Temperatures Readings
Current 11°C / 52°F
Dewpoint 11°C / 52°F
Humidity 100%
Altimeter 30.22" Hg
Pressure 1023.42 hPa
Elevation 482
METAR KAVX 181328Z AUTO 26006KT 3/4SM BR OVC003 11/11 A3022 RMK AO2 VIS 1/4V4 T01060106
Observed Flight Rules
Jan-18 @ 13:28 UTC
(19 minutes ago)
LIFR
Wind Visibility
260° at 6 knots 3/4 miles
Clouds
  • Overcast at 300' AGL
Conditions
  • Mist
Temperature Dewpoint
11°C / 52°F 11°C / 52°F
Humidity Altimeter Pressure
100% 30.22" Hg 1023.42 hPa